createdAt,value
2018-07-28T00:00:49.114Z,12.3
2018-07-28T00:01:49.108Z,12.29
2018-07-28T00:02:49.209Z,12.35
2018-07-28T00:03:49.130Z,12.32
2018-07-28T00:04:49.181Z,12.28
2018-07-28T00:05:49.127Z,12.33
2018-07-28T00:06:49.095Z,12.27
2018-07-28T00:07:49.151Z,12.32
2018-07-28T00:08:49.120Z,12.23
2018-07-28T00:09:49.138Z,12.18
2018-07-28T00:10:49.097Z,12.25
2018-07-28T00:11:49.091Z,12.28
2018-07-28T00:12:49.078Z,12.25
2018-07-28T00:13:49.216Z,12.17
2018-07-28T00:14:49.076Z,12.19
2018-07-28T00:15:49.103Z,12.35
2018-07-28T00:16:49.421Z,12.21
2018-07-28T00:17:49.225Z,12.28
2018-07-28T00:18:49.065Z,12.23
2018-07-28T00:19:49.062Z,12.27
2018-07-28T00:20:49.144Z,12.27
2018-07-28T00:21:49.075Z,12.23
2018-07-28T00:22:49.064Z,12.28
2018-07-28T00:23:49.078Z,12.3
2018-07-28T00:24:49.524Z,12.32
2018-07-28T00:25:49.080Z,12.26
2018-07-28T00:26:49.056Z,12.4
2018-07-28T00:27:49.178Z,12.35
2018-07-28T00:28:49.068Z,12.38
2018-07-28T00:29:49.071Z,12.29
2018-07-28T00:30:49.060Z,12.29
2018-07-28T00:31:49.060Z,12.33
2018-07-28T00:32:49.147Z,12.18
2018-07-28T00:33:49.080Z,12.24
2018-07-28T00:34:49.066Z,12.32
2018-07-28T00:35:49.569Z,12.28
2018-07-28T00:36:49.070Z,12.32
2018-07-28T00:37:49.141Z,12.2
2018-07-28T00:38:49.104Z,12.23
2018-07-28T00:39:49.085Z,12.23
2018-07-28T00:40:49.201Z,12.27
2018-07-28T00:41:49.239Z,12.23
2018-07-28T00:42:49.088Z,12.27
2018-07-28T00:43:49.111Z,12.19
2018-07-28T00:44:49.074Z,12.25
2018-07-28T00:45:49.077Z,12.23
2018-07-28T00:46:49.052Z,12.23
2018-07-28T00:47:49.060Z,12.27
2018-07-28T00:48:49.112Z,12.23
2018-07-28T00:49:49.071Z,12.22
2018-07-28T00:50:49.100Z,12.24
2018-07-28T00:51:49.073Z,12.27
2018-07-28T00:52:49.075Z,12.17
2018-07-28T00:53:49.258Z,12.26
2018-07-28T00:54:49.057Z,12.22
2018-07-28T00:55:49.070Z,12.24
2018-07-28T00:56:49.073Z,12.16
2018-07-28T00:57:49.075Z,12.23
2018-07-28T00:58:49.088Z,12.18
2018-07-28T00:59:49.091Z,12.25
2018-07-28T01:00:49.091Z,12.24
2018-07-28T01:01:49.258Z,12.25
2018-07-28T01:02:49.066Z,12.25
2018-07-28T01:03:49.090Z,12.22
2018-07-28T01:04:49.078Z,12.19
2018-07-28T01:05:49.098Z,12.19
2018-07-28T01:06:49.107Z,12.23
2018-07-28T01:07:49.068Z,12.26
2018-07-28T01:08:49.082Z,12.31
2018-07-28T01:09:49.139Z,12.24
2018-07-28T01:10:49.065Z,12.21
2018-07-28T01:11:49.045Z,12.28
2018-07-28T01:12:49.426Z,12.2
2018-07-28T01:13:49.050Z,12.23
2018-07-28T01:14:49.121Z,12.25
2018-07-28T01:15:49.175Z,12.22
2018-07-28T01:16:49.039Z,12.2
2018-07-28T01:17:49.060Z,12.22
2018-07-28T01:18:49.084Z,12.17
2018-07-28T01:19:49.089Z,12.23
2018-07-28T01:20:49.097Z,12.17
2018-07-28T01:21:49.103Z,12.21
2018-07-28T01:22:49.125Z,12.25
2018-07-28T01:23:49.058Z,12.16
2018-07-28T01:24:49.099Z,12.12
2018-07-28T01:25:49.076Z,12.22
2018-07-28T01:26:49.047Z,12.23
2018-07-28T01:27:49.107Z,12.24
2018-07-28T01:28:49.082Z,12.21
2018-07-28T01:29:49.274Z,12.15
2018-07-28T01:30:49.174Z,12.23
2018-07-28T01:31:49.078Z,12.24
2018-07-28T01:32:49.112Z,12.24
2018-07-28T01:33:49.287Z,12.2
2018-07-28T01:34:49.049Z,12.21
2018-07-28T01:35:49.056Z,12.24
2018-07-28T01:36:49.119Z,12.14
2018-07-28T01:37:49.058Z,12.15
2018-07-28T01:38:49.095Z,12.12
2018-07-28T01:39:49.042Z,12.21
2018-07-28T01:40:49.096Z,12.18
2018-07-28T01:41:49.077Z,12.15
2018-07-28T01:42:49.121Z,12.18
2018-07-28T01:43:49.095Z,12.17
2018-07-28T01:44:49.056Z,12.14
2018-07-28T01:45:49.064Z,12.17
2018-07-28T01:46:49.148Z,12.18
2018-07-28T01:47:49.178Z,12.17
2018-07-28T01:48:49.148Z,12.18
2018-07-28T01:49:49.103Z,12.13
2018-07-28T01:50:49.063Z,12.1
2018-07-28T01:51:49.079Z,12.15
2018-07-28T01:52:49.050Z,12.21
2018-07-28T01:53:49.079Z,12.21
2018-07-28T01:54:49.063Z,12.17
2018-07-28T01:55:49.066Z,12.15
2018-07-28T01:56:49.063Z,12.17
2018-07-28T01:57:49.071Z,12.18
2018-07-28T01:58:49.076Z,12.18
2018-07-28T01:59:49.847Z,12.09
2018-07-28T02:00:49.065Z,12.15
2018-07-28T02:01:49.064Z,12.07
2018-07-28T02:02:49.087Z,12.14
2018-07-28T02:03:49.118Z,12.17
2018-07-28T02:04:49.074Z,12.13
2018-07-28T02:05:49.066Z,12.09
2018-07-28T02:06:49.066Z,12.14
2018-07-28T02:07:49.064Z,12.17
2018-07-28T02:08:49.075Z,12.14
2018-07-28T02:09:49.053Z,12.17
2018-07-28T02:10:49.705Z,12.11
2018-07-28T02:11:49.070Z,12.11
2018-07-28T02:12:49.076Z,12.11
2018-07-28T02:13:49.083Z,12.13
2018-07-28T02:14:49.099Z,12.12
2018-07-28T02:15:49.066Z,12.12
2018-07-28T02:16:49.051Z,12.21
2018-07-28T02:17:49.089Z,12.14
2018-07-28T02:18:49.075Z,12.17
2018-07-28T02:19:49.211Z,12.13
2018-07-28T02:20:49.110Z,12.17
2018-07-28T02:21:49.112Z,12.17
2018-07-28T02:22:49.085Z,12.13
2018-07-28T02:23:49.094Z,12.14
2018-07-28T02:24:49.076Z,12.13
2018-07-28T02:25:49.103Z,12.16
2018-07-28T02:26:49.056Z,12.11
2018-07-28T02:27:49.074Z,12.11
2018-07-28T02:28:49.374Z,12.14
2018-07-28T02:29:49.104Z,12.04
2018-07-28T02:30:49.362Z,12.16
2018-07-28T02:31:49.131Z,12.15
2018-07-28T02:32:49.083Z,12.12
2018-07-28T02:33:49.116Z,12.17
2018-07-28T02:34:49.056Z,12.17
2018-07-28T02:35:49.199Z,12.18
2018-07-28T02:36:49.255Z,12.15
2018-07-28T02:37:49.051Z,12.17
2018-07-28T02:38:49.067Z,12.16
2018-07-28T02:39:49.254Z,12.1
2018-07-28T02:40:49.061Z,12.14
2018-07-28T02:41:49.074Z,12.1
2018-07-28T02:42:49.085Z,12.17
2018-07-28T02:43:49.070Z,12.16
2018-07-28T02:44:49.116Z,12.21
2018-07-28T02:45:49.089Z,12.16
2018-07-28T02:46:49.091Z,12.21
2018-07-28T02:47:49.117Z,12.2
2018-07-28T02:48:49.216Z,12.2
2018-07-28T02:49:49.108Z,12.16
2018-07-28T02:50:49.401Z,12.2
2018-07-28T02:51:49.097Z,12.24
2018-07-28T02:52:49.118Z,12.2
2018-07-28T02:53:49.118Z,12.24
2018-07-28T02:54:49.087Z,12.22
2018-07-28T02:55:49.097Z,12.21
2018-07-28T02:56:49.053Z,12.15
2018-07-28T02:57:49.113Z,12.15
2018-07-28T02:58:49.240Z,12.13
2018-07-28T02:59:49.145Z,12.19
2018-07-28T03:00:49.061Z,12.2
2018-07-28T03:01:49.079Z,12.19
2018-07-28T03:02:49.438Z,12.17
2018-07-28T03:03:49.125Z,12.14
2018-07-28T03:04:49.077Z,12.19
2018-07-28T03:05:49.217Z,12.16
2018-07-28T03:06:49.082Z,12.17
2018-07-28T03:07:49.107Z,12.15
2018-07-28T03:08:49.239Z,12.21
2018-07-28T03:09:49.075Z,12.06
2018-07-28T03:10:49.092Z,12.19
2018-07-28T03:11:49.170Z,12.2
2018-07-28T03:12:49.541Z,12.11
2018-07-28T03:13:49.054Z,12.08
2018-07-28T03:14:49.089Z,12.18
2018-07-28T03:15:49.036Z,12.11
2018-07-28T03:16:49.057Z,12.17
2018-07-28T03:17:49.071Z,12.19
2018-07-28T03:18:49.132Z,12.24
2018-07-28T03:19:49.035Z,12.14
2018-07-28T03:20:49.052Z,12.1
2018-07-28T03:21:49.079Z,12.14
2018-07-28T03:22:49.058Z,12.25
2018-07-28T03:23:49.039Z,12.19
2018-07-28T03:24:49.048Z,12.21
2018-07-28T03:25:49.072Z,12.19
2018-07-28T03:26:49.111Z,12.13
2018-07-28T03:27:49.051Z,12.11
2018-07-28T03:28:49.022Z,12.18
2018-07-28T03:29:49.027Z,12.23
2018-07-28T03:30:49.148Z,12.11
2018-07-28T03:31:49.053Z,12.12
2018-07-28T03:32:49.041Z,12.04
2018-07-28T03:33:49.035Z,12.15
2018-07-28T03:34:49.063Z,12.18
2018-07-28T03:35:49.079Z,12.15
2018-07-28T03:36:49.049Z,12.19
2018-07-28T03:37:49.047Z,12.25
2018-07-28T03:38:49.079Z,12.2
2018-07-28T03:39:49.058Z,12.25
2018-07-28T03:40:49.069Z,12.32
2018-07-28T03:41:49.027Z,12.28
2018-07-28T03:42:49.036Z,12.26
2018-07-28T03:43:49.051Z,12.24
2018-07-28T03:44:49.084Z,12.17
2018-07-28T03:45:49.291Z,12.12
2018-07-28T03:46:49.081Z,12.22
2018-07-28T03:47:49.057Z,12.32
2018-07-28T03:48:49.093Z,12.2
2018-07-28T03:49:49.070Z,12.3
2018-07-28T03:50:49.179Z,12.26
2018-07-28T03:51:49.033Z,12.24
2018-07-28T03:52:49.035Z,12.33
2018-07-28T03:53:49.080Z,12.3
2018-07-28T03:54:49.059Z,12.33
2018-07-28T03:55:49.012Z,12.25
2018-07-28T03:56:49.250Z,12.32
2018-07-28T03:57:49.110Z,12.25
2018-07-28T03:58:49.071Z,12.36
2018-07-28T03:59:49.129Z,12.28
2018-07-28T04:00:49.144Z,12.27
2018-07-28T04:01:49.080Z,12.3
2018-07-28T04:02:49.103Z,12.32
2018-07-28T04:03:49.083Z,12.39
2018-07-28T04:04:49.040Z,12.25
2018-07-28T04:05:49.077Z,12.34
2018-07-28T04:06:49.008Z,12.35
2018-07-28T04:07:49.098Z,12.21
2018-07-28T04:08:49.060Z,12.29
2018-07-28T04:09:49.413Z,12.28
2018-07-28T04:10:49.061Z,12.23
2018-07-28T04:11:49.040Z,12.14
2018-07-28T04:12:49.026Z,12.22
2018-07-28T04:13:49.052Z,12.18
2018-07-28T04:14:49.060Z,12.36
2018-07-28T04:15:49.059Z,12.25
2018-07-28T04:16:49.047Z,12.38
2018-07-28T04:17:49.067Z,12.4
2018-07-28T04:18:49.047Z,12.3
2018-07-28T04:19:49.085Z,12.18
2018-07-28T04:20:49.039Z,12.15
2018-07-28T04:21:49.025Z,12.43
2018-07-28T04:22:49.060Z,12.2
2018-07-28T04:23:49.196Z,12.34
2018-07-28T04:24:49.065Z,12.39
2018-07-28T04:25:49.057Z,12.31
2018-07-28T04:26:49.156Z,12.2
2018-07-28T04:27:49.028Z,12.3
2018-07-28T04:28:49.043Z,12.28
2018-07-28T04:29:49.099Z,12.37
2018-07-28T04:30:49.026Z,12.39
2018-07-28T04:31:49.014Z,12.32
2018-07-28T04:32:49.036Z,12.31
2018-07-28T04:33:49.152Z,12.35
2018-07-28T04:34:49.023Z,12.28
2018-07-28T04:35:49.167Z,12.35
2018-07-28T04:36:49.055Z,12.3
2018-07-28T04:37:49.059Z,12.34
2018-07-28T04:38:49.015Z,12.33
2018-07-28T04:39:49.007Z,12.38
2018-07-28T04:40:49.035Z,12.39
2018-07-28T04:41:49.054Z,12.38
2018-07-28T04:42:49.020Z,12.37
2018-07-28T04:43:49.026Z,12.3
2018-07-28T04:44:49.029Z,12.41
2018-07-28T04:45:49.025Z,12.3
2018-07-28T04:46:49.059Z,12.34
2018-07-28T04:47:49.038Z,12.38
2018-07-28T04:48:49.009Z,12.4
2018-07-28T04:49:49.027Z,12.47
2018-07-28T04:50:49.187Z,12.49
2018-07-28T04:51:49.034Z,12.41
2018-07-28T04:52:49.038Z,12.51
2018-07-28T04:53:49.171Z,12.41
2018-07-28T04:54:49.110Z,12.43
2018-07-28T04:55:49.172Z,12.43
2018-07-28T04:56:49.010Z,12.46
2018-07-28T04:57:49.388Z,12.34
2018-07-28T04:58:49.339Z,12.56
2018-07-28T04:59:49.221Z,12.45
2018-07-28T05:00:49.052Z,12.49
2018-07-28T05:01:49.015Z,12.43
2018-07-28T05:02:49.037Z,12.39
2018-07-28T05:03:49.096Z,12.48
2018-07-28T05:04:49.047Z,12.45
2018-07-28T05:05:49.025Z,12.52
2018-07-28T05:06:49.286Z,12.51
2018-07-28T05:07:49.010Z,12.46
2018-07-28T05:08:49.207Z,12.51
2018-07-28T05:09:49.012Z,12.46
2018-07-28T05:10:49.027Z,12.48
2018-07-28T05:11:49.117Z,12.62
2018-07-28T05:12:49.204Z,12.56
2018-07-28T05:13:49.047Z,12.46
2018-07-28T05:14:49.141Z,12.73
2018-07-28T05:15:49.632Z,12.66
2018-07-28T05:16:49.125Z,12.56
2018-07-28T05:17:49.288Z,12.62
2018-07-28T05:18:49.502Z,12.71
2018-07-28T05:19:49.232Z,12.74
2018-07-28T05:20:49.096Z,12.67
2018-07-28T05:21:49.074Z,12.88
2018-07-28T05:22:49.047Z,12.82
2018-07-28T05:23:49.400Z,12.79
2018-07-28T05:24:49.061Z,12.91
2018-07-28T05:25:49.275Z,12.82
2018-07-28T05:26:49.126Z,12.83
2018-07-28T05:27:49.053Z,12.82
2018-07-28T05:28:49.807Z,12.88
2018-07-28T05:29:49.096Z,12.87
2018-07-28T05:30:49.135Z,12.86
2018-07-28T05:31:49.287Z,12.87
2018-07-28T05:32:49.044Z,12.91
2018-07-28T05:33:49.052Z,12.91
2018-07-28T05:34:49.029Z,12.99
2018-07-28T05:35:49.008Z,12.89
2018-07-28T05:36:49.043Z,12.84
2018-07-28T05:37:49.139Z,12.97
2018-07-28T05:38:49.013Z,12.93
2018-07-28T05:39:49.052Z,12.89
2018-07-28T05:40:49.442Z,12.89
2018-07-28T05:41:49.294Z,13
2018-07-28T05:42:49.872Z,12.88
2018-07-28T05:43:49.119Z,12.91
2018-07-28T05:44:49.200Z,12.97
2018-07-28T05:45:49.077Z,12.91
2018-07-28T05:46:49.050Z,12.84
2018-07-28T05:47:49.096Z,12.89
2018-07-28T05:48:49.032Z,12.8
2018-07-28T05:49:49.028Z,12.74
2018-07-28T05:50:49.009Z,12.8
2018-07-28T05:51:49.062Z,12.88
2018-07-28T05:52:49.017Z,12.85
2018-07-28T05:53:48.993Z,12.92
2018-07-28T05:54:49.057Z,12.82
2018-07-28T05:55:48.995Z,12.91
2018-07-28T05:56:49.006Z,12.87
2018-07-28T05:57:49.044Z,12.93
2018-07-28T05:58:49.028Z,12.81
2018-07-28T05:59:49.023Z,12.74
2018-07-28T06:00:49.047Z,12.96
2018-07-28T06:01:49.050Z,12.84
2018-07-28T06:02:49.397Z,12.95
2018-07-28T06:03:49.037Z,12.85
2018-07-28T06:04:49.030Z,12.88
2018-07-28T06:05:49.002Z,12.77
2018-07-28T06:06:48.999Z,12.73
2018-07-28T06:07:49.042Z,12.85
2018-07-28T06:08:48.996Z,12.95
2018-07-28T06:09:49.080Z,12.94
2018-07-28T06:10:49.555Z,12.85
2018-07-28T06:11:48.985Z,12.78
2018-07-28T06:12:49.054Z,12.85
2018-07-28T06:13:49.144Z,12.84
2018-07-28T06:14:49.070Z,12.85
2018-07-28T06:15:49.485Z,12.93
2018-07-28T06:16:49.082Z,12.92
2018-07-28T06:17:49.006Z,12.98
2018-07-28T06:18:49.014Z,12.89
2018-07-28T06:19:49.055Z,12.98
2018-07-28T06:20:49.108Z,12.96
2018-07-28T06:21:49.285Z,12.9
2018-07-28T06:22:49.045Z,13.06
2018-07-28T06:23:49.097Z,13.09
2018-07-28T06:24:49.159Z,13.08
2018-07-28T06:25:49.260Z,13.15
2018-07-28T06:26:49.087Z,13.1
2018-07-28T06:27:49.159Z,13.03
2018-07-28T06:28:49.118Z,13.06
2018-07-28T06:29:49.056Z,12.81
2018-07-28T06:30:49.066Z,12.88
2018-07-28T06:31:49.794Z,12.91
2018-07-28T06:32:49.100Z,12.87
2018-07-28T06:33:49.303Z,12.86
2018-07-28T06:34:49.059Z,12.86
2018-07-28T06:35:49.029Z,12.85
2018-07-28T06:36:49.088Z,12.92
2018-07-28T06:37:49.176Z,12.9
2018-07-28T06:38:49.108Z,12.88
2018-07-28T06:39:49.108Z,12.92
2018-07-28T06:40:49.002Z,12.92
2018-07-28T06:41:49.060Z,12.83
2018-07-28T06:42:49.006Z,12.97
2018-07-28T06:43:49.060Z,12.94
2018-07-28T06:44:49.162Z,12.95
2018-07-28T06:45:49.025Z,12.89
2018-07-28T06:46:49.273Z,12.98
2018-07-28T06:47:49.111Z,12.98
2018-07-28T06:48:49.030Z,12.88
2018-07-28T06:49:49.062Z,12.91
2018-07-28T06:50:49.043Z,12.93
2018-07-28T06:51:49.407Z,12.89
2018-07-28T06:52:49.104Z,12.81
2018-07-28T06:53:50.050Z,12.86
2018-07-28T06:54:48.976Z,12.93
2018-07-28T06:55:49.085Z,12.9
2018-07-28T06:56:49.139Z,12.89
2018-07-28T06:57:48.997Z,12.94
2018-07-28T06:58:49.097Z,12.93
2018-07-28T06:59:49.074Z,12.98
2018-07-28T07:00:49.017Z,12.95
2018-07-28T07:01:49.382Z,12.89
2018-07-28T07:02:49.022Z,12.85
2018-07-28T07:03:48.970Z,12.97
2018-07-28T07:04:49.595Z,12.95
2018-07-28T07:05:49.121Z,12.97
2018-07-28T07:06:49.109Z,12.97
2018-07-28T07:07:49.019Z,13.01
2018-07-28T07:08:48.980Z,12.94
2018-07-28T07:09:49.030Z,13.06
2018-07-28T07:10:49.049Z,13.04
2018-07-28T07:11:49.012Z,13.1
2018-07-28T07:12:49.037Z,13.1
2018-07-28T07:13:49.022Z,13.02
2018-07-28T07:14:49.076Z,13.09
2018-07-28T07:15:49.007Z,13.1
2018-07-28T07:16:49.004Z,13.03
2018-07-28T07:17:48.987Z,13.06
2018-07-28T07:18:49.028Z,13.08
2018-07-28T07:19:49.005Z,13
2018-07-28T07:20:48.989Z,13.04
2018-07-28T07:21:48.997Z,13.11
2018-07-28T07:22:49.046Z,13.07
2018-07-28T07:23:48.995Z,13.01
2018-07-28T07:24:49.528Z,12.95
2018-07-28T07:25:49.051Z,12.99
2018-07-28T07:26:49.028Z,12.96
2018-07-28T07:27:49.017Z,12.96
2018-07-28T07:28:49.103Z,13.01
2018-07-28T07:29:49.002Z,12.88
2018-07-28T07:30:49.105Z,12.89
2018-07-28T07:31:49.181Z,12.93
2018-07-28T07:32:49.117Z,12.95
2018-07-28T07:33:49.220Z,12.9
2018-07-28T07:34:49.029Z,12.99
2018-07-28T07:35:49.107Z,12.99
2018-07-28T07:36:49.089Z,13.02
2018-07-28T07:37:49.065Z,13.1
2018-07-28T07:38:48.984Z,13.17
2018-07-28T07:39:49.046Z,13.12
2018-07-28T07:40:49.368Z,13.13
2018-07-28T07:41:50.037Z,13.06
2018-07-28T07:42:49.132Z,13.11
2018-07-28T07:43:49.059Z,13.15
2018-07-28T07:44:49.091Z,13.16
2018-07-28T07:45:49.088Z,13.14
2018-07-28T07:46:49.219Z,13.17
2018-07-28T07:47:49.039Z,13.15
2018-07-28T07:48:49.171Z,13.21
2018-07-28T07:49:49.094Z,13.22
2018-07-28T07:50:49.067Z,13.22
2018-07-28T07:51:49.060Z,13.2
2018-07-28T07:52:49.010Z,13.18
2018-07-28T07:53:49.315Z,13.16
2018-07-28T07:54:49.090Z,13.15
2018-07-28T07:55:49.039Z,13.24
2018-07-28T07:56:49.024Z,13.07
2018-07-28T07:57:49.265Z,12.99
2018-07-28T07:58:49.177Z,13.13
2018-07-28T07:59:49.058Z,13.18
2018-07-28T08:00:49.098Z,13.31
2018-07-28T08:01:49.088Z,13.33
2018-07-28T08:02:49.071Z,13.18
2018-07-28T08:03:49.119Z,13.15
2018-07-28T08:04:49.361Z,13.06
2018-07-28T08:05:49.159Z,13.11
2018-07-28T08:06:49.080Z,13.09
2018-07-28T08:07:49.341Z,13.17
2018-07-28T08:08:49.128Z,13.34
2018-07-28T08:09:49.033Z,13.44
2018-07-28T08:10:49.178Z,13.6
2018-07-28T08:11:49.017Z,13.59
2018-07-28T08:12:48.971Z,13.51
2018-07-28T08:13:49.049Z,13.45
2018-07-28T08:14:49.058Z,13.71
2018-07-28T08:15:49.065Z,13.64
2018-07-28T08:16:49.034Z,13.61
2018-07-28T08:17:49.070Z,13.76
2018-07-28T08:18:49.049Z,13.7
2018-07-28T08:19:49.013Z,13.66
2018-07-28T08:20:49.016Z,13.66
2018-07-28T08:21:49.051Z,13.65
2018-07-28T08:22:49.056Z,13.59
2018-07-28T08:23:48.968Z,13.69
2018-07-28T08:24:49.310Z,13.71
2018-07-28T08:25:49.016Z,13.75
2018-07-28T08:26:49.765Z,13.63
2018-07-28T08:27:48.973Z,13.66
2018-07-28T08:28:48.969Z,13.62
2018-07-28T08:29:49.016Z,13.53
2018-07-28T08:30:49.040Z,13.56
2018-07-28T08:31:49.075Z,13.52
2018-07-28T08:32:48.992Z,13.66
2018-07-28T08:33:49.091Z,13.48
2018-07-28T08:34:49.059Z,13.51
2018-07-28T08:35:48.965Z,13.34
2018-07-28T08:36:48.956Z,13.29
2018-07-28T08:37:49.361Z,13.28
2018-07-28T08:38:48.969Z,13.29
2018-07-28T08:39:49.277Z,13.41
2018-07-28T08:40:49.024Z,13.4
2018-07-28T08:41:48.981Z,13.33
2018-07-28T08:42:49.055Z,13.4
2018-07-28T08:43:49.064Z,13.35
2018-07-28T08:44:49.062Z,13.37
2018-07-28T08:45:49.030Z,13.47
2018-07-28T08:46:49.175Z,13.59
2018-07-28T08:47:49.063Z,13.68
2018-07-28T08:48:49.435Z,13.76
2018-07-28T08:49:48.983Z,13.82
2018-07-28T08:50:49.024Z,13.87
2018-07-28T08:51:49.159Z,13.74
2018-07-28T08:52:49.092Z,13.74
2018-07-28T08:53:49.148Z,13.75
2018-07-28T08:54:49.105Z,13.76
2018-07-28T08:55:49.161Z,13.44
2018-07-28T08:56:49.276Z,13.48
2018-07-28T08:57:49.033Z,13.45
2018-07-28T08:58:49.073Z,13.54
2018-07-28T08:59:49.192Z,13.4
2018-07-28T09:00:49.220Z,13.27
2018-07-28T09:01:48.977Z,13.33
2018-07-28T09:02:49.100Z,13.27
2018-07-28T09:03:49.330Z,13.17
2018-07-28T09:04:49.121Z,13.26
2018-07-28T09:05:49.442Z,13.08
2018-07-28T09:06:49.132Z,13.21
2018-07-28T09:07:49.136Z,13.33
2018-07-28T09:08:49.046Z,13.21
2018-07-28T09:09:49.107Z,13.31
2018-07-28T09:10:49.048Z,13.37
2018-07-28T09:11:48.974Z,13.5
2018-07-28T09:12:49.061Z,13.39
2018-07-28T09:13:49.286Z,13.47
2018-07-28T09:14:49.173Z,13.61
2018-07-28T09:15:49.068Z,13.66
2018-07-28T09:16:49.088Z,13.36
2018-07-28T09:17:49.340Z,13.37
2018-07-28T09:18:49.002Z,13.36
2018-07-28T09:19:49.028Z,13.17
2018-07-28T09:20:49.051Z,13.27
2018-07-28T09:21:49.131Z,13.25
2018-07-28T09:22:49.140Z,13.23
2018-07-28T09:23:49.141Z,13
2018-07-28T09:24:49.052Z,13.2
2018-07-28T09:25:49.084Z,13.21
2018-07-28T09:26:49.244Z,13.12
2018-07-28T09:27:49.035Z,13.19
2018-07-28T09:28:48.973Z,13.14
2018-07-28T09:29:49.035Z,13.17
2018-07-28T09:30:49.043Z,12.94
2018-07-28T09:31:48.976Z,13
2018-07-28T09:32:49.102Z,12.97
2018-07-28T09:33:49.144Z,13.06
2018-07-28T09:34:49.170Z,13.04
2018-07-28T09:35:48.990Z,13.15
2018-07-28T09:36:50.002Z,13.04
2018-07-28T09:37:49.917Z,13.08
2018-07-28T09:38:49.130Z,13.22
2018-07-28T09:39:49.143Z,13.25
2018-07-28T09:40:49.147Z,13.4
2018-07-28T09:41:49.267Z,13.52
2018-07-28T09:42:49.189Z,13.35
2018-07-28T09:43:48.984Z,13.32
2018-07-28T09:44:49.019Z,13.35
2018-07-28T09:45:49.016Z,13.42
2018-07-28T09:46:48.991Z,13.42
2018-07-28T09:47:49.010Z,13.39
2018-07-28T09:48:49.002Z,13.44
2018-07-28T09:49:49.049Z,13.35
2018-07-28T09:50:48.997Z,13.24
2018-07-28T09:51:49.233Z,13.19
2018-07-28T09:52:49.131Z,13.15
2018-07-28T09:53:48.951Z,13.26
2018-07-28T09:54:49.177Z,13.28
2018-07-28T09:55:49.009Z,13.12
2018-07-28T09:56:48.975Z,13.05
2018-07-28T09:57:49.027Z,13.16
2018-07-28T09:58:48.966Z,13.24
2018-07-28T09:59:48.953Z,13.36
2018-07-28T10:00:49.198Z,13.41
2018-07-28T10:01:48.977Z,13.09
2018-07-28T10:02:49.199Z,13.15
2018-07-28T10:03:48.948Z,13.19
2018-07-28T10:04:49.035Z,13.34
2018-07-28T10:05:49.002Z,13.42
2018-07-28T10:06:49.239Z,13.4
2018-07-28T10:07:49.180Z,13.39
2018-07-28T10:08:48.980Z,13.39
2018-07-28T10:09:48.978Z,13.1
2018-07-28T10:10:49.147Z,13.02
2018-07-28T10:11:49.262Z,13.13
2018-07-28T10:12:49.050Z,13.31
2018-07-28T10:13:49.033Z,13.17
2018-07-28T10:14:49.074Z,13.09
2018-07-28T10:15:49.086Z,13.11
2018-07-28T10:16:48.969Z,13.18
2018-07-28T10:17:49.148Z,13.2
2018-07-28T10:18:49.002Z,13.22
2018-07-28T10:19:48.952Z,13.17
2018-07-28T10:20:49.195Z,13.33
2018-07-28T10:21:49.116Z,13.35
2018-07-28T10:22:49.257Z,13.27
2018-07-28T10:23:49.028Z,13.32
2018-07-28T10:24:48.959Z,13.15
2018-07-28T10:25:49.153Z,13.32
2018-07-28T10:26:49.008Z,13.34
2018-07-28T10:27:49.039Z,13.33
2018-07-28T10:28:48.966Z,13.39
2018-07-28T10:29:49.063Z,13.41
2018-07-28T10:30:49.067Z,13.47
2018-07-28T10:31:49.064Z,13.43
2018-07-28T10:32:48.964Z,13.4
2018-07-28T10:33:49.004Z,13.5
2018-07-28T10:34:49.209Z,13.53
2018-07-28T10:35:49.028Z,13.4
2018-07-28T10:36:49.244Z,13.55
2018-07-28T10:37:49.094Z,13.65
2018-07-28T10:38:49.150Z,13.5
2018-07-28T10:39:49.089Z,13.61
2018-07-28T10:40:49.063Z,13.51
2018-07-28T10:41:49.062Z,13.6
2018-07-28T10:42:49.085Z,13.53
2018-07-28T10:43:48.957Z,13.57
2018-07-28T10:44:49.100Z,13.64
2018-07-28T10:45:48.973Z,13.83
2018-07-28T10:46:49.034Z,13.8
2018-07-28T10:47:49.097Z,13.43
2018-07-28T10:48:49.081Z,13.54
2018-07-28T10:49:49.046Z,13.42
2018-07-28T10:50:49.092Z,13.5
2018-07-28T10:51:49.560Z,13.54
2018-07-28T10:52:49.174Z,13.54
2018-07-28T10:53:49.339Z,13.55
2018-07-28T10:54:49.187Z,13.44
2018-07-28T10:55:49.209Z,13.58
2018-07-28T10:56:49.048Z,13.54
2018-07-28T10:57:49.062Z,13.57
2018-07-28T10:58:49.087Z,13.65
2018-07-28T10:59:49.023Z,13.7
2018-07-28T11:00:49.053Z,13.87
2018-07-28T11:01:49.049Z,13.73
2018-07-28T11:02:48.882Z,13.89
2018-07-28T11:03:48.950Z,13.68
2018-07-28T11:04:49.048Z,13.67
2018-07-28T11:05:49.019Z,13.74
2018-07-28T11:06:49.160Z,13.76
2018-07-28T11:07:49.017Z,13.51
2018-07-28T11:08:48.964Z,13.42
2018-07-28T11:09:48.979Z,13.47
2018-07-28T11:10:49.029Z,13.51
2018-07-28T11:11:49.067Z,13.48
2018-07-28T11:12:49.143Z,13.16
2018-07-28T11:13:49.121Z,13.33
2018-07-28T11:14:49.094Z,13.13
2018-07-28T11:15:49.095Z,12.88
2018-07-28T11:16:48.987Z,12.72
2018-07-28T11:17:49.059Z,12.8
2018-07-28T11:18:49.275Z,13.02
2018-07-28T11:19:49.012Z,13.11
2018-07-28T11:20:49.034Z,12.99
2018-07-28T11:21:49.172Z,13.19
2018-07-28T11:22:48.974Z,13.32
2018-07-28T11:23:49.129Z,13.32
2018-07-28T11:24:49.043Z,13.35
2018-07-28T11:25:49.369Z,13.33
2018-07-28T11:26:49.094Z,13.39
2018-07-28T11:27:48.998Z,13.37
2018-07-28T11:28:49.090Z,13.33
2018-07-28T11:29:49.101Z,13.48
2018-07-28T11:30:49.198Z,13.51
2018-07-28T11:31:49.704Z,13.45
2018-07-28T11:32:49.184Z,13.62
2018-07-28T11:33:49.074Z,13.53
2018-07-28T11:34:49.103Z,13.39
2018-07-28T11:35:49.108Z,13.01
2018-07-28T11:36:49.059Z,12.81
2018-07-28T11:37:49.455Z,13.24
2018-07-28T11:38:49.103Z,12.94
2018-07-28T11:39:49.021Z,13.15
2018-07-28T11:40:49.019Z,13.11
2018-07-28T11:41:49.056Z,13.14
2018-07-28T11:42:49.107Z,13.36
2018-07-28T11:43:49.062Z,13.42
2018-07-28T11:44:49.017Z,13.16
2018-07-28T11:45:49.396Z,13.03
2018-07-28T11:46:49.084Z,12.73
2018-07-28T11:47:49.040Z,12.7
2018-07-28T11:48:49.064Z,12.75
2018-07-28T11:49:49.053Z,12.83
2018-07-28T11:50:49.057Z,12.99
2018-07-28T11:51:49.159Z,13.04
2018-07-28T11:52:49.088Z,13.04
2018-07-28T11:53:49.048Z,12.89
2018-07-28T11:54:49.108Z,12.87
2018-07-28T11:55:49.193Z,12.9
2018-07-28T11:56:49.057Z,13.07
2018-07-28T11:57:49.088Z,12.89
2018-07-28T11:58:49.228Z,12.77
2018-07-28T11:59:49.076Z,12.79
2018-07-28T12:00:49.064Z,12.91
2018-07-28T12:01:49.803Z,12.99
2018-07-28T12:02:49.093Z,13.09
2018-07-28T12:03:49.051Z,13.25
2018-07-28T12:04:49.052Z,13.31
2018-07-28T12:05:49.074Z,13.12
2018-07-28T12:06:49.044Z,13.05
2018-07-28T12:07:49.051Z,13.14
2018-07-28T12:08:49.049Z,13.06
2018-07-28T12:09:49.062Z,12.88
2018-07-28T12:10:49.051Z,13.03
2018-07-28T12:11:49.174Z,13.04
2018-07-28T12:12:49.043Z,13.13
2018-07-28T12:13:49.094Z,13
2018-07-28T12:14:49.295Z,13.17
2018-07-28T12:15:49.096Z,13.08
2018-07-28T12:16:49.186Z,13.2
2018-07-28T12:17:49.032Z,13.32
2018-07-28T12:18:49.085Z,13.16
2018-07-28T12:19:49.093Z,13.12
2018-07-28T12:20:49.068Z,13.09
2018-07-28T12:21:49.071Z,13.06
2018-07-28T12:22:49.051Z,13.04
2018-07-28T12:23:49.251Z,13.22
2018-07-28T12:24:49.046Z,13.2
2018-07-28T12:25:49.114Z,13.05
2018-07-28T12:26:49.111Z,13.14
2018-07-28T12:27:49.076Z,13.2
2018-07-28T12:28:49.081Z,13.11
2018-07-28T12:29:49.160Z,13.21
2018-07-28T12:30:49.094Z,13.29
2018-07-28T12:31:49.076Z,13.31
2018-07-28T12:32:49.066Z,13.2
2018-07-28T12:33:49.271Z,13.32
2018-07-28T12:34:49.434Z,13.37
2018-07-28T12:35:49.200Z,13.23
2018-07-28T12:36:49.279Z,13.42
2018-07-28T12:37:49.076Z,13.56
2018-07-28T12:38:49.091Z,13.5
2018-07-28T12:39:49.128Z,13.65
2018-07-28T12:40:49.125Z,13.6
2018-07-28T12:41:49.082Z,13.63
2018-07-28T12:42:49.131Z,13.56
2018-07-28T12:43:49.061Z,13.69
2018-07-28T12:44:49.236Z,13.66
2018-07-28T12:45:49.185Z,13.73
2018-07-28T12:46:49.120Z,13.57
2018-07-28T12:47:49.146Z,13.58
2018-07-28T12:48:49.066Z,13.69
2018-07-28T12:49:49.177Z,13.78
2018-07-28T12:50:49.150Z,13.84
2018-07-28T12:51:49.134Z,13.86
2018-07-28T12:52:49.102Z,13.87
2018-07-28T12:53:49.106Z,13.83
2018-07-28T12:54:49.220Z,13.98
2018-07-28T12:55:49.108Z,14.14